Map

Track Data

SID SEASON NUMBER BASIN SUBBASIN NAME ISO_TIME NATURE LAT LON WMO_WIND WMO_PRES WMO_AGENCY TRACK_TYPE DIST2LAND LANDFALL IFLAG USA_AGENCY USA_ATCF_ID USA_LAT USA_LON USA_RECORD USA_STATUS USA_WIND USA_PRES USA_SSHS USA_R34_NE USA_R34_SE USA_R34_SW USA_R34_NW USA_R50_NE USA_R50_SE USA_R50_SW USA_R50_NW USA_R64_NE USA_R64_SE USA_R64_SW USA_R64_NW USA_POCI USA_ROCI USA_RMW USA_EYE TOKYO_LAT TOKYO_LON TOKYO_GRADE TOKYO_WIND TOKYO_PRES TOKYO_R50_DIR TOKYO_R50_LONG TOKYO_R50_SHORT TOKYO_R30_DIR TOKYO_R30_LONG TOKYO_R30_SHORT TOKYO_LAND CMA_LAT CMA_LON CMA_CAT CMA_WIND CMA_PRES HKO_LAT HKO_LON HKO_CAT HKO_WIND HKO_PRES NEWDELHI_LAT NEWDELHI_LON NEWDELHI_GRADE NEWDELHI_WIND NEWDELHI_PRES NEWDELHI_CI NEWDELHI_DP NEWDELHI_POCI REUNION_LAT REUNION_LON REUNION_TYPE REUNION_WIND REUNION_PRES REUNION_TNUM REUNION_CI REUNION_RMW REUNION_R34_NE REUNION_R34_SE REUNION_R34_SW REUNION_R34_NW REUNION_R50_NE REUNION_R50_SE REUNION_R50_SW REUNION_R50_NW REUNION_R64_NE REUNION_R64_SE REUNION_R64_SW REUNION_R64_NW BOM_LAT BOM_LON BOM_TYPE BOM_WIND BOM_PRES BOM_TNUM BOM_CI BOM_RMW BOM_R34_NE BOM_R34_SE BOM_R34_SW BOM_R34_NW BOM_R50_NE BOM_R50_SE BOM_R50_SW BOM_R50_NW BOM_R64_NE BOM_R64_SE BOM_R64_SW BOM_R64_NW BOM_ROCI BOM_POCI BOM_EYE BOM_POS_METHOD BOM_PRES_METHOD NADI_LAT NADI_LON NADI_CAT NADI_WIND NADI_PRES WELLINGTON_LAT WELLINGTON_LON WELLINGTON_WIND WELLINGTON_PRES DS824_LAT DS824_LON DS824_STAGE DS824_WIND DS824_PRES TD9636_LAT TD9636_LON TD9636_STAGE TD9636_WIND TD9636_PRES TD9635_LAT TD9635_LON TD9635_WIND TD9635_PRES TD9635_ROCI NEUMANN_LAT NEUMANN_LON NEUMANN_CLASS NEUMANN_WIND NEUMANN_PRES MLC_LAT MLC_LON MLC_CLASS MLC_WIND MLC_PRES USA_GUST BOM_GUST BOM_GUST_PER REUNION_GUST REUNION_GUST_PER USA_SEAHGT USA_SEARAD_NE USA_SEARAD_SE USA_SEARAD_SW USA_SEARAD_NW STORM_SPEED STORM_DIR
1897219N20129 1897 20 WP MM NOT_NAMED 1897-08-06 16:00:00 NR 20.3000 128.800 main 714 694 __________O___ -1 20.3000 128.800 7 5 256
1897219N20129 1897 20 WP MM NOT_NAMED 1897-08-06 18:00:00 NR 20.2612 128.634 main 694 671 __________P___ -1 20.2612 128.634 7 5 260
1897219N20129 1897 20 WP MM NOT_NAMED 1897-08-06 21:00:00 NR 20.2299 128.385 main 671 644 __________P___ -1 20.2299 128.385 7 5 271
1897219N20129 1897 20 WP MM NOT_NAMED 1897-08-07 00:00:00 NR 20.2681 128.135 main 644 628 __________P___ -1 20.2681 128.135 7 5 292
1897219N20129 1897 20 WP MM NOT_NAMED 1897-08-07 03:00:00 NR 20.4180 127.884 main 628 622 __________P___ -1 20.4180 127.884 7 6 307
1897219N20129 1897 20 WP MM NOT_NAMED 1897-08-07 04:00:00 NR 20.5000 127.800 main 622 611 __________O___ -1 20.5000 127.800 4 8 322
1897219N20129 1897 20 WP MM NOT_NAMED 1897-08-07 06:00:00 NR 20.7169 127.630 main 611 607 __________P___ -1 20.7169 127.630 4 9 328
1897219N20129 1897 20 WP MM NOT_NAMED 1897-08-07 09:00:00 NR 21.1494 127.370 main 613 606 __________P___ -1 21.1494 127.370 4 11 332
1897219N20129 1897 20 WP MM NOT_NAMED 1897-08-07 12:00:00 NR 21.6662 127.096 main 606 562 __________P___ -1 21.6662 127.096 4 12 334
1897219N20129 1897 20 WP MM NOT_NAMED 1897-08-07 15:00:00 NR 22.2173 126.803 main 562 542 __________P___ -1 22.2173 126.803 4 12 333
1897219N20129 1897 20 WP MM NOT_NAMED 1897-08-07 16:00:00 NR 22.4000 126.700 main 542 509 __________O___ -1 22.4000 126.700 4 12 332
1897219N20129 1897 20 WP MM NOT_NAMED 1897-08-07 18:00:00 NR 22.7484 126.494 main 509 456 __________P___ -1 22.7484 126.494 4 12 331
1897219N20129 1897 20 WP MM NOT_NAMED 1897-08-07 21:00:00 NR 23.2778 126.167 main 456 403 __________P___ -1 23.2778 126.167 4 12 329
1897219N20129 1897 20 WP MM NOT_NAMED 1897-08-08 00:00:00 NR 23.7906 125.815 main 403 352 __________P___ -1 23.7906 125.815 4 12 326
1897219N20129 1897 20 WP MM NOT_NAMED 1897-08-08 03:00:00 NR 24.2587 125.434 main 352 339 __________P___ -1 24.2587 125.434 4 12 322
1897219N20129 1897 20 WP MM NOT_NAMED 1897-08-08 04:00:00 NR 24.4000 125.300 main 339 304 __________O___ -1 24.4000 125.300 4 11 317
1897219N20129 1897 20 WP MM NOT_NAMED 1897-08-08 06:00:00 NR 24.6534 125.027 main 304 261 __________P___ -1 24.6534 125.027 4 10 312
1897219N20129 1897 20 WP MM NOT_NAMED 1897-08-08 09:00:00 NR 24.9832 124.594 main 261 213 __________P___ -1 24.9832 124.594 4 10 307
1897219N20129 1897 20 WP MM NOT_NAMED 1897-08-08 12:00:00 NR 25.2668 124.137 main 213 179 __________P___ -1 25.2668 124.137 4 10 302
1897219N20129 1897 20 WP MM NOT_NAMED 1897-08-08 15:00:00 NR 25.5197 123.661 main 179 164 __________P___ -1 25.5197 123.661 4 10 300
1897219N20129 1897 20 WP MM NOT_NAMED 1897-08-08 16:00:00 NR 25.6000 123.500 main 164 143 __________O___ -1 25.6000 123.500 4 10 299
1897219N20129 1897 20 WP MM NOT_NAMED 1897-08-08 18:00:00 NR 25.7752 123.160 main 149 126 __________P___ -1 25.7752 123.160 4 11 298
1897219N20129 1897 20 WP MM NOT_NAMED 1897-08-08 21:00:00 NR 26.0192 122.636 main 126 122 __________P___ -1 26.0192 122.636 4 10 297
1897219N20129 1897 20 WP MM NOT_NAMED 1897-08-09 00:00:00 NR 26.2405 122.122 main 122 126 __________P___ -1 26.2405 122.122 4 10 295
1897219N20129 1897 20 WP MM NOT_NAMED 1897-08-09 03:00:00 NR 26.4389 121.646 main 134 126 __________P___ -1 26.4389 121.646 4 9 295
1897219N20129 1897 20 WP MM NOT_NAMED 1897-08-09 04:00:00 NR 26.5000 121.500 main 126 96 __________O___ -1 26.5000 121.500 4 8 294
1897219N20129 1897 20 WP MM NOT_NAMED 1897-08-09 06:00:00 NR 26.6061 121.232 main 96 66 __________P___ -1 26.6061 121.232 4 7 294
1897219N20129 1897 20 WP MM NOT_NAMED 1897-08-09 09:00:00 NR 26.7466 120.875 main 66 29 __________P___ -1 26.7466 120.875 4 7 295
1897219N20129 1897 20 WP MM NOT_NAMED 1897-08-09 12:00:00 NR 26.8841 120.563 main 29 0 __________P___ -1 26.8841 120.563 4 6 299
1897219N20129 1897 20 WP MM NOT_NAMED 1897-08-09 15:00:00 NR 27.0401 120.286 main 0 0 __________P___ -1 27.0401 120.286 4 6 304
1897219N20129 1897 20 WP MM NOT_NAMED 1897-08-09 16:00:00 NR 27.1000 120.200 main 0 0 __________O___ -1 27.1000 120.200 4 6 311
1897219N20129 1897 20 WP MM NOT_NAMED 1897-08-09 18:00:00 NR 27.2347 120.035 main 0 0 __________P___ -1 27.2347 120.035 4 6 316
1897219N20129 1897 20 WP MM NOT_NAMED 1897-08-09 21:00:00 NR 27.4683 119.803 main 0 0 __________P___ -1 27.4683 119.803 4 6 321
1897219N20129 1897 20 WP MM NOT_NAMED 1897-08-10 00:00:00 NR 27.7295 119.584 main 0 0 __________P___ -1 27.7295 119.584 4 7 324
1897219N20129 1897 20 WP MM NOT_NAMED 1897-08-10 03:00:00 NR 28.0063 119.371 main 0 0 __________P___ -1 28.0063 119.371 4 7 326
1897219N20129 1897 20 WP MM NOT_NAMED 1897-08-10 04:00:00 NR 28.1000 119.300 main 0 __________O___ -1 28.1000 119.300 4 7 327

Digital Typhoon Data and Search

About IBTrACS Database

This database is a web-friendly format of International Best Track Archive for Climate Stewardship (IBTrACS), a global best track data archive curated by NOAA dating back to 1842.

Updated: 2021-11-26